Time;durP1;ratioP1;P1;durP2;ratioP2;P2;SDS_P1;SDS_P2;PMS_P1;PMS_P2;Temp;Humidity;BMP_temperature;BMP_pressure;BME280_temperature;BME280_humidity;BME280_pressure;Samples;Min_cycle;Max_cycle;Signal;HPM_P1;HPM_P2
2023/05/05 00:00:36;;;;;;;0.40;0.40;;;13.20;99.90;;;;;;5012093;28;20064;-64
2023/05/05 00:03:02;;;;;;;0.00;0.00;;;13.20;99.90;;;;;;5015116;28;20048;-64
2023/05/05 00:05:27;;;;;;;1.35;1.13;;;13.00;99.90;;;;;;5027881;28;20046;-64
2023/05/05 00:07:53;;;;;;;0.28;0.28;;;13.00;99.90;;;;;;5023953;28;20046;-64
2023/05/05 00:10:19;;;;;;;1.17;1.00;;;13.00;99.90;;;;;;5025752;28;20033;-64
2023/05/05 00:12:44;;;;;;;0.13;0.13;;;13.10;99.90;;;;;;5022224;28;20045;-64
2023/05/05 00:15:10;;;;;;;0.35;0.35;;;13.10;99.90;;;;;;5015748;28;20037;-64
2023/05/05 00:17:35;;;;;;;0.70;0.32;;;13.00;99.90;;;;;;5016393;28;20033;-64
2023/05/05 00:20:01;;;;;;;0.03;0.03;;;13.10;99.90;;;;;;5025195;28;20099;-64
2023/05/05 00:22:27;;;;;;;0.20;0.20;;;13.00;99.90;;;;;;5019032;28;20048;-64
2023/05/05 00:24:53;;;;;;;21.52;1.90;;;13.10;99.90;;;;;;5018311;28;20513;-64
2023/05/05 00:27:18;;;;;;;0.43;0.43;;;13.10;99.90;;;;;;5016945;28;20066;-64
2023/05/05 00:29:44;;;;;;;0.82;0.82;;;13.10;99.90;;;;;;5024908;28;20517;-64
2023/05/05 00:32:09;;;;;;;0.30;0.25;;;13.10;99.90;;;;;;5018589;28;20069;-64
2023/05/05 00:34:35;;;;;;;0.28;0.28;;;13.10;99.90;;;;;;5016794;28;20046;-64
2023/05/05 00:37:02;;;;;;;0.20;0.20;;;13.10;99.90;;;;;;5018466;28;20139;-64
2023/05/05 00:39:27;;;;;;;1.90;1.55;;;13.10;99.90;;;;;;5014746;28;20053;-63
2023/05/05 00:41:53;;;;;;;0.00;0.00;;;13.10;99.90;;;;;;5016966;28;20543;-64
2023/05/05 00:44:38;;;;;;;0.10;0.10;;;13.10;99.90;;;;;;5026152;28;20073;-64
2023/05/05 00:47:03;;;;;;;0.43;0.43;;;13.10;99.90;;;;;;5013892;28;20596;-64
2023/05/05 00:49:29;;;;;;;0.30;0.30;;;13.10;99.90;;;;;;5016489;28;20077;-64
2023/05/05 00:51:55;;;;;;;0.00;0.00;;;13.10;99.90;;;;;;5012522;28;20053;-64
2023/05/05 00:54:21;;;;;;;0.13;0.13;;;13.10;99.90;;;;;;5016163;28;20049;-64
2023/05/05 00:56:49;;;;;;;0.00;0.00;;;13.10;99.90;;;;;;5026757;28;20045;-64
2023/05/05 00:59:16;;;;;;;0.30;0.30;;;13.10;99.90;;;;;;5019932;28;20079;-63
2023/05/05 01:01:42;;;;;;;0.10;0.10;;;13.00;99.90;;;;;;5012947;28;20053;-64
2023/05/05 01:04:07;;;;;;;0.32;0.32;;;13.00;99.90;;;;;;5014607;28;20049;-64
2023/05/05 01:07:03;;;;;;;0.22;0.22;;;13.00;99.90;;;;;;5015640;28;20129;-64
2023/05/05 01:09:37;;;;;;;0.20;0.20;;;13.00;99.90;;;;;;5020207;28;20085;-64
2023/05/05 01:12:25;;;;;;;0.00;0.00;;;13.00;99.90;;;;;;5012804;28;20393;-63
2023/05/05 01:15:25;;;;;;;0.30;0.30;;;12.90;99.90;;;;;;5016791;28;20042;-63
2023/05/05 01:18:30;;;;;;;0.50;0.50;;;12.90;99.90;;;;;;5014631;28;20133;-64
2023/05/05 01:21:25;;;;;;;0.00;0.00;;;13.00;99.90;;;;;;5010926;28;20485;-63
2023/05/05 01:23:57;;;;;;;0.88;0.70;;;12.90;99.90;;;;;;5005284;28;20049;-63
2023/05/05 01:26:54;;;;;;;1.70;1.52;;;12.90;99.90;;;;;;5015315;28;20564;-64
2023/05/05 01:29:53;;;;;;;0.17;0.17;;;12.80;99.90;;;;;;5012965;28;20042;-64
2023/05/05 01:32:24;;;;;;;0.17;0.17;;;12.80;99.90;;;;;;5014355;28;20042;-64
2023/05/05 01:34:59;;;;;;;0.00;0.00;;;12.70;99.90;;;;;;5007956;28;20129;-63
2023/05/05 01:37:29;;;;;;;0.00;0.00;;;12.70;99.90;;;;;;5020825;28;20041;-64
2023/05/05 01:40:01;;;;;;;0.20;0.20;;;12.80;99.90;;;;;;5021964;28;20041;-63
2023/05/05 01:42:29;;;;;;;0.10;0.10;;;12.80;99.90;;;;;;5017878;28;20085;-64
2023/05/05 01:44:55;;;;;;;0.13;0.13;;;12.80;99.90;;;;;;5014268;28;20051;-63
2023/05/05 01:47:22;;;;;;;0.10;0.10;;;12.70;99.90;;;;;;5024936;28;20524;-63
2023/05/05 01:49:49;;;;;;;0.10;0.10;;;12.80;99.90;;;;;;5012682;28;20033;-63
2023/05/05 01:52:15;;;;;;;0.10;0.10;;;12.70;99.90;;;;;;5019170;28;20049;-63
2023/05/05 01:54:43;;;;;;;0.05;0.05;;;12.80;99.90;;;;;;5014222;28;20061;-63
2023/05/05 01:57:11;;;;;;;0.08;0.08;;;12.70;99.90;;;;;;5023260;28;20045;-63
2023/05/05 01:59:38;;;;;;;0.15;0.15;;;12.70;99.90;;;;;;5015313;28;20088;-64
2023/05/05 02:02:06;;;;;;;0.13;0.13;;;12.70;99.90;;;;;;5024738;28;20069;-63
2023/05/05 02:04:34;;;;;;;0.10;0.10;;;12.70;99.90;;;;;;5019272;28;20706;-63
2023/05/05 02:07:01;;;;;;;0.03;0.03;;;12.60;99.90;;;;;;5018173;28;20071;-63
2023/05/05 02:09:28;;;;;;;0.15;0.15;;;12.70;99.90;;;;;;5017493;28;20041;-64
2023/05/05 02:11:56;;;;;;;0.00;0.00;;;12.60;99.90;;;;;;5015034;28;20084;-63
2023/05/05 02:14:23;;;;;;;0.40;0.40;;;12.60;99.90;;;;;;5018363;28;20042;-64
2023/05/05 02:16:50;;;;;;;0.10;0.10;;;12.60;99.90;;;;;;5047389;28;20049;-63
2023/05/05 02:19:18;;;;;;;0.10;0.10;;;12.50;99.90;;;;;;5009927;28;20045;-63
2023/05/05 02:21:43;;;;;;;0.38;0.30;;;12.60;99.90;;;;;;5021814;28;20084;-63
2023/05/05 02:24:09;;;;;;;0.20;0.17;;;12.50;99.90;;;;;;5018489;28;20385;-63
2023/05/05 02:26:38;;;;;;;0.10;0.10;;;12.60;99.90;;;;;;5019526;28;20397;-63
2023/05/05 02:29:13;;;;;;;0.20;0.20;;;12.50;99.90;;;;;;5020891;28;20037;-63
2023/05/05 02:31:45;;;;;;;0.57;0.57;;;12.50;99.90;;;;;;5015753;28;20057;-63
2023/05/05 02:34:15;;;;;;;0.10;0.10;;;12.50;99.90;;;;;;5019712;28;20084;-64
2023/05/05 02:36:41;;;;;;;0.10;0.10;;;12.60;99.90;;;;;;5016529;28;20053;-63
2023/05/05 02:39:19;;;;;;;0.10;0.10;;;12.50;99.90;;;;;;5014263;28;20042;-63
2023/05/05 02:41:47;;;;;;;0.40;0.40;;;12.50;99.90;;;;;;5016223;28;20053;-63
2023/05/05 02:44:13;;;;;;;0.03;0.03;;;12.50;99.90;;;;;;5024176;28;20056;-63
2023/05/05 02:46:39;;;;;;;0.65;0.65;;;12.50;99.90;;;;;;5018542;28;20493;-63
2023/05/05 02:49:05;;;;;;;0.10;0.10;;;12.50;99.90;;;;;;5015761;28;20113;-63
2023/05/05 02:51:31;;;;;;;0.20;0.20;;;12.50;99.90;;;;;;5012792;28;20144;-63
2023/05/05 02:53:57;;;;;;;0.00;0.00;;;12.40;99.90;;;;;;5011023;28;20068;-63
2023/05/05 02:56:26;;;;;;;0.10;0.10;;;12.50;99.90;;;;;;5022099;28;20046;-63
2023/05/05 02:58:58;;;;;;;3.30;0.75;;;12.40;99.90;;;;;;5021182;28;20124;-63
2023/05/05 03:01:49;;;;;;;0.00;0.00;;;12.50;99.90;;;;;;5016122;28;20041;-64
2023/05/05 03:04:26;;;;;;;0.30;0.30;;;12.50;99.90;;;;;;5022229;28;20056;-63
2023/05/05 03:06:56;;;;;;;0.10;0.10;;;12.60;99.90;;;;;;5016420;28;20469;-63
2023/05/05 03:09:31;;;;;;;0.15;0.15;;;12.60;99.90;;;;;;5022432;28;20121;-63
2023/05/05 03:12:15;;;;;;;0.20;0.20;;;12.60;99.90;;;;;;5015310;28;20486;-63
2023/05/05 03:14:43;;;;;;;0.43;0.43;;;12.60;99.90;;;;;;5012757;28;20049;-63
2023/05/05 03:17:10;;;;;;;0.65;0.65;;;12.60;99.90;;;;;;5019433;28;20052;-63
2023/05/05 03:19:38;;;;;;;2.38;1.90;;;12.60;99.90;;;;;;5025479;28;20081;-63
2023/05/05 03:22:04;;;;;;;0.05;0.05;;;12.70;99.90;;;;;;5020092;28;20378;-63
2023/05/05 03:24:29;;;;;;;0.10;0.10;;;12.70;99.90;;;;;;5022393;28;20045;-64
2023/05/05 03:26:55;;;;;;;0.22;0.22;;;12.60;99.90;;;;;;5021789;28;20057;-64
2023/05/05 03:29:20;;;;;;;0.45;0.45;;;12.40;99.90;;;;;;5043656;28;20056;-64
2023/05/05 03:31:46;;;;;;;0.55;0.55;;;12.40;99.90;;;;;;5015541;28;20073;-64
2023/05/05 03:34:12;;;;;;;0.00;0.00;;;12.20;99.90;;;;;;5019460;28;20042;-64
2023/05/05 03:36:38;;;;;;;0.43;0.35;;;12.10;99.90;;;;;;5017158;28;20052;-64
2023/05/05 03:39:03;;;;;;;0.10;0.10;;;12.10;99.90;;;;;;5020210;28;20041;-64
2023/05/05 03:41:29;;;;;;;0.30;0.30;;;12.00;99.90;;;;;;5021217;28;20045;-65
2023/05/05 03:43:55;;;;;;;0.45;0.35;;;12.00;99.90;;;;;;5014141;28;20765;-65
2023/05/05 03:46:20;;;;;;;0.13;0.13;;;11.90;99.90;;;;;;5015918;28;20033;-65
2023/05/05 03:48:47;;;;;;;0.10;0.10;;;11.90;99.90;;;;;;5018581;28;20496;-65
2023/05/05 03:51:13;;;;;;;0.10;0.10;;;11.90;99.90;;;;;;5013493;28;20046;-65
2023/05/05 03:53:38;;;;;;;0.30;0.30;;;11.80;99.90;;;;;;5011222;28;20049;-65
2023/05/05 03:56:04;;;;;;;29.83;1.85;;;11.90;99.90;;;;;;5021743;28;20121;-65
2023/05/05 03:58:30;;;;;;;0.13;0.13;;;11.80;99.90;;;;;;5018788;28;20053;-65
2023/05/05 04:00:56;;;;;;;6.93;1.30;;;11.80;99.90;;;;;;5020299;28;20049;-65
2023/05/05 04:03:21;;;;;;;0.15;0.15;;;11.90;99.90;;;;;;5019978;28;20046;-65
2023/05/05 04:05:47;;;;;;;0.10;0.10;;;11.90;99.90;;;;;;5019657;28;20129;-65
2023/05/05 04:08:13;;;;;;;0.13;0.13;;;11.90;99.90;;;;;;5021377;28;20133;-65
2023/05/05 04:10:38;;;;;;;0.57;0.22;;;11.80;99.90;;;;;;5015276;28;20081;-65
2023/05/05 04:13:04;;;;;;;0.10;0.10;;;11.80;99.90;;;;;;5014697;28;20057;-65
2023/05/05 04:15:29;;;;;;;0.00;0.00;;;11.80;99.90;;;;;;5019754;28;20545;-65
2023/05/05 04:17:55;;;;;;;0.17;0.17;;;11.80;99.90;;;;;;5011301;28;20486;-65
2023/05/05 04:20:21;;;;;;;0.00;0.00;;;11.80;99.90;;;;;;5021588;28;20060;-65
2023/05/05 04:22:46;;;;;;;6.40;2.08;;;11.80;99.90;;;;;;5017725;28;20045;-65
2023/05/05 04:25:12;;;;;;;1.65;0.98;;;11.60;99.90;;;;;;5012136;28;20034;-65
2023/05/05 04:27:38;;;;;;;0.00;0.00;;;11.70;99.90;;;;;;5017792;28;20044;-65
2023/05/05 04:30:04;;;;;;;0.10;0.10;;;11.70;99.90;;;;;;5025022;28;20050;-65
2023/05/05 04:32:30;;;;;;;0.65;0.57;;;11.70;99.90;;;;;;5028435;28;20045;-65
2023/05/05 04:34:55;;;;;;;0.30;0.30;;;11.70;99.90;;;;;;5018515;28;20060;-65
2023/05/05 04:37:21;;;;;;;0.65;0.57;;;11.70;99.90;;;;;;5023736;28;20073;-65
2023/05/05 04:39:47;;;;;;;0.20;0.20;;;11.80;99.90;;;;;;5018180;28;20034;-65
2023/05/05 04:42:12;;;;;;;0.00;0.00;;;11.70;99.90;;;;;;5020801;28;20042;-65
2023/05/05 04:44:38;;;;;;;3.20;1.85;;;11.70;99.90;;;;;;5010753;28;20088;-65
2023/05/05 04:47:03;;;;;;;0.20;0.20;;;11.60;99.90;;;;;;5025451;28;20119;-65
2023/05/05 04:49:30;;;;;;;0.03;0.03;;;11.60;99.90;;;;;;5023751;28;20045;-65
2023/05/05 04:51:56;;;;;;;0.13;0.13;;;11.60;99.90;;;;;;5011672;28;20085;-65
2023/05/05 04:54:21;;;;;;;0.10;0.10;;;11.60;99.90;;;;;;5012986;28;21836;-65
2023/05/05 04:56:47;;;;;;;0.63;0.63;;;11.70;99.90;;;;;;5023702;28;20041;-65
2023/05/05 04:59:14;;;;;;;3.70;0.35;;;11.60;99.90;;;;;;5015355;28;20720;-65
2023/05/05 05:01:39;;;;;;;0.43;0.43;;;11.60;99.90;;;;;;5015377;28;20116;-65
2023/05/05 05:04:05;;;;;;;2.40;1.02;;;11.50;99.90;;;;;;5017124;28;20464;-65
2023/05/05 05:06:31;;;;;;;0.10;0.10;;;11.50;99.90;;;;;;5025976;28;20046;-65
2023/05/05 05:08:57;;;;;;;0.10;0.10;;;11.50;99.90;;;;;;5025630;28;20535;-64
2023/05/05 05:11:22;;;;;;;0.00;0.00;;;11.50;99.90;;;;;;5018036;28;20041;-65
2023/05/05 05:13:48;;;;;;;0.30;0.30;;;11.40;99.90;;;;;;5020741;28;20567;-65
2023/05/05 05:16:14;;;;;;;0.10;0.10;;;11.40;99.90;;;;;;5018958;28;20045;-65
2023/05/05 05:18:40;;;;;;;0.10;0.10;;;11.40;99.90;;;;;;5019886;28;20058;-66
2023/05/05 05:21:05;;;;;;;0.00;0.00;;;11.50;99.90;;;;;;5050807;28;20091;-65
2023/05/05 05:23:31;;;;;;;0.20;0.20;;;11.50;99.90;;;;;;5018301;28;20117;-65
2023/05/05 05:25:56;;;;;;;1.65;1.15;;;11.50;99.90;;;;;;5024889;28;20401;-65
2023/05/05 05:28:22;;;;;;;3.72;0.80;;;11.50;99.90;;;;;;5012813;28;20045;-66
2023/05/05 05:30:48;;;;;;;0.10;0.10;;;11.50;99.90;;;;;;5016276;28;20049;-65
2023/05/05 05:33:13;;;;;;;0.52;0.52;;;11.50;99.90;;;;;;5015591;28;20120;-65
2023/05/05 05:35:39;;;;;;;0.70;0.40;;;11.50;99.90;;;;;;5019730;28;20049;-65
2023/05/05 05:38:05;;;;;;;1.25;0.75;;;11.40;99.90;;;;;;5023383;28;20033;-65
2023/05/05 05:40:31;;;;;;;0.15;0.15;;;11.40;99.90;;;;;;5010526;28;20088;-65
2023/05/05 05:42:56;;;;;;;0.20;0.20;;;11.40;99.90;;;;;;5015405;28;20111;-65
2023/05/05 05:45:22;;;;;;;0.00;0.00;;;11.30;99.90;;;;;;5014081;28;20053;-65
2023/05/05 05:47:48;;;;;;;0.10;0.10;;;11.30;99.90;;;;;;5016568;28;20455;-65
2023/05/05 05:50:13;;;;;;;0.03;0.03;;;11.30;99.90;;;;;;5014045;28;20041;-65
2023/05/05 05:52:39;;;;;;;9.63;1.15;;;11.30;99.90;;;;;;5016526;28;20063;-65
2023/05/05 05:55:06;;;;;;;0.40;0.40;;;11.40;99.90;;;;;;5013686;28;20576;-65
2023/05/05 05:57:31;;;;;;;0.03;0.03;;;11.50;99.90;;;;;;5015310;28;20056;-65
2023/05/05 05:59:57;;;;;;;0.35;0.35;;;11.50;99.90;;;;;;5014406;28;20054;-65
2023/05/05 06:02:23;;;;;;;0.20;0.20;;;11.60;99.90;;;;;;5016899;28;20087;-65
2023/05/05 06:04:48;;;;;;;0.35;0.35;;;11.60;99.90;;;;;;5020251;28;20466;-65
2023/05/05 06:07:14;;;;;;;0.15;0.15;;;11.70;99.90;;;;;;5023997;28;20700;-65
2023/05/05 06:09:40;;;;;;;0.30;0.28;;;11.80;99.90;;;;;;5021014;28;20080;-65
2023/05/05 06:12:06;;;;;;;1.13;1.02;;;11.90;99.90;;;;;;5016994;28;20050;-65
2023/05/05 06:14:31;;;;;;;0.10;0.10;;;11.90;99.90;;;;;;5017557;28;20041;-65
2023/05/05 06:16:57;;;;;;;0.90;0.85;;;12.00;99.90;;;;;;5007435;28;20050;-66
2023/05/05 06:19:22;;;;;;;0.60;0.50;;;12.10;99.90;;;;;;5018866;28;20113;-65
2023/05/05 06:21:48;;;;;;;0.20;0.20;;;12.10;99.90;;;;;;5013489;28;20057;-65
2023/05/05 06:24:13;;;;;;;0.20;0.20;;;12.10;99.90;;;;;;5022815;28;20076;-65
2023/05/05 06:26:39;;;;;;;0.30;0.30;;;12.10;99.90;;;;;;5016041;28;20045;-66
2023/05/05 06:29:05;;;;;;;0.20;0.20;;;12.20;99.90;;;;;;5014618;28;20115;-65
2023/05/05 06:31:31;;;;;;;1.95;1.27;;;12.20;99.90;;;;;;5023193;28;20107;-65
2023/05/05 06:33:56;;;;;;;15.73;1.02;;;12.20;99.90;;;;;;5013556;28;20046;-66
2023/05/05 06:36:22;;;;;;;0.68;0.65;;;12.40;99.90;;;;;;5014774;28;20104;-65
2023/05/05 06:38:47;;;;;;;0.20;0.20;;;12.40;99.90;;;;;;5021831;28;20077;-65
2023/05/05 06:41:13;;;;;;;0.05;0.05;;;12.50;99.90;;;;;;5014131;28;20102;-65
2023/05/05 06:43:41;;;;;;;0.10;0.10;;;12.50;99.90;;;;;;5012899;28;20111;-65
2023/05/05 06:46:07;;;;;;;0.28;0.28;;;12.60;99.90;;;;;;5015163;28;20533;-65
2023/05/05 06:48:33;;;;;;;0.80;0.32;;;12.70;99.90;;;;;;5023867;28;20033;-65
2023/05/05 06:50:58;;;;;;;9.13;1.17;;;12.80;99.90;;;;;;5016555;28;20041;-64
2023/05/05 06:53:24;;;;;;;0.45;0.45;;;12.90;99.90;;;;;;5011957;28;20060;-65
2023/05/05 06:55:50;;;;;;;0.00;0.00;;;13.00;99.90;;;;;;5027576;28;20033;-65
2023/05/05 06:58:15;;;;;;;0.52;0.52;;;12.90;99.90;;;;;;5025051;28;20061;-65
2023/05/05 07:00:41;;;;;;;0.10;0.10;;;13.10;99.90;;;;;;5020339;28;20383;-65
2023/05/05 07:03:07;;;;;;;0.35;0.35;;;13.20;99.90;;;;;;5042514;28;20054;-65
2023/05/05 07:05:33;;;;;;;0.00;0.00;;;13.20;99.90;;;;;;5014777;28;20041;-65
2023/05/05 07:07:58;;;;;;;0.47;0.47;;;13.30;99.90;;;;;;5019465;28;20050;-65
2023/05/05 07:10:24;;;;;;;0.28;0.28;;;13.40;99.90;;;;;;5012684;28;20053;-65
2023/05/05 07:12:50;;;;;;;0.30;0.30;;;13.50;99.90;;;;;;5013167;28;20549;-65
2023/05/05 07:15:16;;;;;;;0.20;0.20;;;13.60;99.90;;;;;;5014385;28;20489;-65
2023/05/05 07:17:42;;;;;;;0.40;0.40;;;13.70;99.90;;;;;;5012136;28;20812;-65
2023/05/05 07:20:09;;;;;;;0.10;0.10;;;13.80;99.90;;;;;;5013243;28;20042;-65
2023/05/05 07:22:35;;;;;;;0.00;0.00;;;13.90;99.90;;;;;;5010283;28;20081;-65
2023/05/05 07:25:01;;;;;;;2.17;0.40;;;14.10;99.90;;;;;;5026959;28;20075;-65
2023/05/05 07:27:27;;;;;;;0.17;0.17;;;14.30;99.90;;;;;;5011778;28;20041;-65
2023/05/05 07:29:53;;;;;;;0.22;0.22;;;14.40;99.90;;;;;;5020715;28;20060;-65
2023/05/05 07:32:18;;;;;;;1.27;1.17;;;14.50;99.90;;;;;;5021663;28;20521;-65
2023/05/05 07:34:44;;;;;;;0.82;0.82;;;14.50;99.90;;;;;;5023794;28;20064;-65
2023/05/05 07:37:09;;;;;;;0.10;0.10;;;14.70;99.90;;;;;;5021818;28;20127;-65
2023/05/05 07:39:35;;;;;;;0.08;0.08;;;14.90;99.90;;;;;;5011718;28;20108;-65
2023/05/05 07:42:00;;;;;;;0.10;0.10;;;14.90;99.90;;;;;;5022413;28;20048;-65
2023/05/05 07:44:26;;;;;;;0.00;0.00;;;14.90;99.90;;;;;;5014371;28;20061;-66
2023/05/05 07:46:52;;;;;;;0.00;0.00;;;14.90;99.90;;;;;;5016399;28;20041;-65
2023/05/05 07:49:18;;;;;;;0.40;0.40;;;14.90;99.90;;;;;;5022674;28;20505;-65
2023/05/05 07:51:44;;;;;;;0.10;0.10;;;15.00;99.90;;;;;;5013587;28;20366;-65
2023/05/05 07:54:10;;;;;;;0.28;0.28;;;15.10;99.90;;;;;;5020023;28;20057;-65
2023/05/05 07:56:36;;;;;;;0.30;0.30;;;15.30;99.90;;;;;;5022054;28;20680;-65
2023/05/05 07:59:02;;;;;;;0.03;0.03;;;15.30;99.90;;;;;;5024472;28;20048;-65
2023/05/05 08:01:27;;;;;;;0.00;0.00;;;15.30;99.90;;;;;;5015316;28;20052;-65
2023/05/05 08:03:53;;;;;;;0.30;0.22;;;15.30;99.90;;;;;;5011782;28;20057;-65
2023/05/05 08:06:23;;;;;;;0.50;0.50;;;15.40;99.90;;;;;;5016602;28;20084;-65
2023/05/05 08:08:52;;;;;;;0.70;0.70;;;15.50;99.90;;;;;;5011736;28;20132;-65
2023/05/05 08:11:19;;;;;;;0.52;0.20;;;15.50;99.90;;;;;;5017026;28;20050;-65
2023/05/05 08:13:45;;;;;;;0.10;0.10;;;15.50;99.90;;;;;;5011877;28;20053;-65
2023/05/05 08:16:12;;;;;;;0.65;0.65;;;15.40;99.90;;;;;;5020324;28;20038;-65
2023/05/05 08:18:38;;;;;;;0.25;0.25;;;15.50;99.90;;;;;;5012107;28;20052;-65
2023/05/05 08:21:04;;;;;;;4.28;0.80;;;15.50;99.90;;;;;;5021992;28;20037;-65
2023/05/05 08:23:30;;;;;;;16.58;1.60;;;15.50;99.90;;;;;;5013300;28;20072;-65
2023/05/05 08:25:55;;;;;;;2.00;1.65;;;15.50;99.90;;;;;;5019938;28;20049;-65
2023/05/05 08:28:21;;;;;;;0.10;0.10;;;15.60;99.90;;;;;;5015148;28;20049;-65
2023/05/05 08:30:48;;;;;;;0.13;0.13;;;15.60;99.90;;;;;;5017483;28;20393;-65
2023/05/05 08:33:14;;;;;;;1.02;0.93;;;15.80;99.90;;;;;;5012899;28;20054;-65
2023/05/05 08:35:41;;;;;;;1.20;0.90;;;15.80;99.90;;;;;;5023521;28;20038;-65
2023/05/05 08:38:06;;;;;;;0.00;0.00;;;15.90;99.90;;;;;;5016768;28;20501;-65
2023/05/05 08:40:33;;;;;;;0.30;0.30;;;15.90;99.90;;;;;;5016552;28;20046;-65
2023/05/05 08:43:00;;;;;;;0.57;0.50;;;16.20;99.90;;;;;;5011166;28;20501;-65
2023/05/05 08:45:27;;;;;;;0.15;0.15;;;16.20;99.90;;;;;;5015742;28;20084;-66
2023/05/05 08:47:55;;;;;;;0.75;0.40;;;16.20;99.90;;;;;;5020042;28;20045;-66
2023/05/05 08:50:27;;;;;;;0.00;0.00;;;16.40;99.90;;;;;;5021916;28;20052;-66
2023/05/05 08:53:06;;;;;;;0.15;0.15;;;16.60;99.90;;;;;;5008211;28;20053;-66
2023/05/05 08:55:42;;;;;;;0.15;0.15;;;16.60;99.90;;;;;;5011158;28;20038;-66
2023/05/05 08:58:09;;;;;;;0.30;0.30;;;16.60;99.90;;;;;;5016139;28;20053;-66
2023/05/05 09:00:36;;;;;;;0.45;0.45;;;16.60;99.90;;;;;;5022002;28;20401;-66
2023/05/05 09:03:03;;;;;;;0.30;0.30;;;16.60;99.90;;;;;;5023442;28;20053;-66
2023/05/05 09:05:29;;;;;;;0.20;0.20;;;16.60;99.90;;;;;;5020916;28;20108;-66
2023/05/05 09:07:54;;;;;;;9.35;1.27;;;16.70;99.90;;;;;;5015476;28;20085;-66
2023/05/05 09:10:20;;;;;;;0.00;0.00;;;16.80;99.90;;;;;;5011815;28;20060;-66
2023/05/05 09:12:46;;;;;;;1.35;0.68;;;16.80;99.90;;;;;;5023576;28;20107;-66
2023/05/05 09:15:13;;;;;;;0.30;0.30;;;16.90;99.90;;;;;;5015953;28;20037;-66
2023/05/05 09:17:40;;;;;;;0.35;0.35;;;17.00;99.90;;;;;;5016753;28;20041;-66
2023/05/05 09:20:08;;;;;;;0.38;0.38;;;17.20;99.90;;;;;;5019448;28;20060;-66
2023/05/05 09:22:45;;;;;;;0.20;0.20;;;17.20;99.90;;;;;;5014239;28;20045;-66
2023/05/05 09:25:12;;;;;;;2.22;0.38;;;17.30;99.90;;;;;;5021111;28;20163;-66
2023/05/05 09:27:44;;;;;;;0.00;0.00;;;17.20;99.90;;;;;;5025300;28;20131;-66
2023/05/05 09:30:14;;;;;;;0.73;0.73;;;17.30;99.90;;;;;;5010342;28;20651;-66
2023/05/05 09:32:51;;;;;;;1.38;0.40;;;17.40;99.90;;;;;;5011184;28;20030;-66
2023/05/05 09:35:17;;;;;;;0.55;0.55;;;17.50;99.90;;;;;;5010872;28;20076;-66
2023/05/05 09:37:44;;;;;;;0.88;0.82;;;17.50;99.90;;;;;;5017066;28;20041;-66
2023/05/05 09:40:12;;;;;;;2.38;1.95;;;17.40;99.90;;;;;;5009781;28;20053;-66
2023/05/05 09:42:39;;;;;;;5.85;0.95;;;17.40;99.90;;;;;;5014562;28;20042;-66
2023/05/05 09:45:17;;;;;;;0.73;0.73;;;17.40;99.90;;;;;;5007335;28;20429;-66
2023/05/05 09:47:44;;;;;;;0.47;0.47;;;17.50;99.90;;;;;;5009416;28;20042;-66
2023/05/05 09:50:14;;;;;;;1.05;1.00;;;17.80;99.90;;;;;;5018451;28;20489;-66
2023/05/05 09:52:40;;;;;;;0.52;0.52;;;18.00;99.90;;;;;;5011497;28;20494;-66
2023/05/05 09:55:16;;;;;;;0.28;0.28;;;18.20;99.90;;;;;;5012742;28;20046;-67
2023/05/05 09:57:42;;;;;;;0.55;0.55;;;18.70;99.90;;;;;;5019692;28;20168;-66
2023/05/05 10:00:09;;;;;;;1.02;0.65;;;19.20;99.90;;;;;;5015876;28;20125;-66
2023/05/05 10:02:37;;;;;;;0.32;0.32;;;19.60;99.90;;;;;;5009081;28;20045;-66
2023/05/05 10:05:14;;;;;;;0.10;0.10;;;19.90;99.90;;;;;;5009516;28;20122;-66
2023/05/05 10:07:42;;;;;;;0.55;0.55;;;19.90;99.90;;;;;;5025193;28;20120;-66
2023/05/05 10:10:15;;;;;;;0.10;0.10;;;19.50;99.90;;;;;;5020879;28;20129;-67
2023/05/05 10:12:41;;;;;;;0.10;0.10;;;19.30;99.90;;;;;;5016954;28;20050;-66
2023/05/05 10:15:09;;;;;;;0.00;0.00;;;19.70;99.90;;;;;;5012984;28;20124;-67
2023/05/05 10:17:55;;;;;;;0.47;0.30;;;20.00;99.90;;;;;;5019633;28;20049;-67
2023/05/05 10:20:22;;;;;;;0.52;0.52;;;20.00;99.90;;;;;;5016155;28;20073;-67
2023/05/05 10:22:53;;;;;;;0.20;0.17;;;20.20;99.90;;;;;;5011760;28;20674;-67
2023/05/05 10:25:31;;;;;;;0.35;0.35;;;20.50;99.90;;;;;;5014310;28;20523;-68
2023/05/05 10:28:00;;;;;;;0.08;0.05;;;20.70;99.90;;;;;;5028860;28;20493;-68
2023/05/05 10:30:30;;;;;;;0.10;0.10;;;20.70;99.90;;;;;;5016062;28;20041;-67
2023/05/05 10:33:04;;;;;;;0.50;0.47;;;20.50;99.90;;;;;;5027861;28;20053;-67
2023/05/05 10:35:31;;;;;;;0.45;0.40;;;20.10;99.90;;;;;;5013273;28;20393;-67
2023/05/05 10:37:58;;;;;;;0.10;0.10;;;19.90;99.90;;;;;;5016270;28;20045;-67
2023/05/05 10:40:24;;;;;;;0.00;0.00;;;19.40;99.90;;;;;;5018669;28;20118;-67
2023/05/05 10:42:52;;;;;;;0.00;0.00;;;19.20;99.90;;;;;;5016341;28;20456;-67
2023/05/05 10:45:18;;;;;;;0.17;0.17;;;19.10;99.90;;;;;;5048500;28;20478;-66
2023/05/05 10:47:44;;;;;;;0.00;0.00;;;18.90;99.90;;;;;;5014646;28;20053;-66
2023/05/05 10:50:34;;;;;;;0.20;0.20;;;18.70;99.90;;;;;;5018089;28;20038;-66
2023/05/05 10:53:10;;;;;;;0.55;0.55;;;18.60;99.90;;;;;;5014480;28;20061;-66
2023/05/05 10:55:48;;;;;;;0.20;0.20;;;18.50;99.90;;;;;;5018697;28;20143;-66
2023/05/05 10:58:33;;;;;;;0.00;0.00;;;18.50;99.90;;;;;;5026852;28;20124;-66
2023/05/05 11:00:59;;;;;;;0.20;0.20;;;18.60;99.90;;;;;;5018270;28;20133;-66
2023/05/05 11:03:25;;;;;;;0.10;0.10;;;18.50;99.90;;;;;;5015046;28;20172;-66
2023/05/05 11:06:11;;;;;;;0.15;0.08;;;18.30;99.90;;;;;;5018303;28;20061;-66
2023/05/05 11:08:41;;;;;;;0.00;0.00;;;18.30;99.90;;;;;;5010024;28;20046;-66
2023/05/05 11:11:11;;;;;;;16.35;0.65;;;18.20;99.90;;;;;;5017713;28;20947;-66
2023/05/05 11:13:38;;;;;;;0.30;0.30;;;18.20;99.90;;;;;;5019257;28;20560;-66
2023/05/05 11:16:05;;;;;;;4.85;0.22;;;18.20;99.90;;;;;;5026946;28;20128;-66
2023/05/05 11:18:35;;;;;;;0.05;0.05;;;18.30;99.90;;;;;;5029177;28;20041;-66
2023/05/05 11:21:00;;;;;;;0.10;0.10;;;18.20;99.90;;;;;;5012172;28;20042;-66
2023/05/05 11:23:27;;;;;;;0.10;0.10;;;18.20;99.90;;;;;;5014037;28;20489;-66
2023/05/05 11:25:53;;;;;;;0.28;0.10;;;18.30;99.90;;;;;;5016848;28;20065;-66
2023/05/05 11:29:02;;;;;;;0.28;0.28;;;18.40;99.90;;;;;;5019541;28;20096;-66
2023/05/05 11:31:29;;;;;;;0.00;0.00;;;18.40;99.90;;;;;;5013714;28;20327;-66
2023/05/05 11:34:27;;;;;;;10.02;2.83;;;18.40;99.90;;;;;;5030394;28;20089;-66
2023/05/05 11:36:56;;;;;;;0.00;0.00;;;18.40;99.90;;;;;;5021009;28;20037;-67
2023/05/05 11:39:43;;;;;;;0.28;0.28;;;18.50;99.90;;;;;;5009729;28;20060;-67
2023/05/05 11:42:22;;;;;;;1.05;0.93;;;18.50;99.90;;;;;;5017778;28;20493;-67
2023/05/05 11:44:48;;;;;;;0.20;0.17;;;18.50;99.90;;;;;;5023452;28;20092;-67
2023/05/05 11:47:14;;;;;;;0.00;0.00;;;18.60;99.90;;;;;;5017996;28;20088;-67
2023/05/05 11:49:39;;;;;;;1.27;0.65;;;18.70;99.90;;;;;;5024933;28;20050;-67
2023/05/05 11:52:07;;;;;;;0.00;0.00;;;18.60;99.90;;;;;;5012329;28;20464;-67
2023/05/05 11:54:46;;;;;;;0.20;0.20;;;18.70;99.90;;;;;;5014392;28;20049;-67
2023/05/05 11:57:12;;;;;;;0.43;0.22;;;18.60;99.90;;;;;;5020676;28;20061;-67
2023/05/05 11:59:51;;;;;;;0.17;0.17;;;18.60;99.90;;;;;;5019306;28;20100;-67
2023/05/05 12:02:18;;;;;;;0.22;0.22;;;18.60;99.90;;;;;;5014035;28;20128;-67
2023/05/05 12:04:45;;;;;;;0.63;0.55;;;18.40;99.90;;;;;;5017386;28;20046;-67
2023/05/05 12:07:15;;;;;;;0.00;0.00;;;18.30;99.90;;;;;;5014944;28;20070;-67
2023/05/05 12:09:45;;;;;;;0.00;0.00;;;18.30;99.90;;;;;;5012901;28;20145;-67
2023/05/05 12:12:11;;;;;;;0.00;0.00;;;18.30;99.90;;;;;;5016327;28;20104;-66
2023/05/05 12:14:57;;;;;;;0.08;0.08;;;18.20;99.90;;;;;;5015283;28;20410;-66
2023/05/05 12:17:23;;;;;;;0.30;0.30;;;18.10;99.90;;;;;;5011975;28;20656;-67
2023/05/05 12:19:50;;;;;;;0.43;0.32;;;18.10;99.90;;;;;;5012525;28;20065;-66
2023/05/05 12:22:24;;;;;;;0.00;0.00;;;18.20;99.90;;;;;;5014882;28;20049;-66
2023/05/05 12:24:58;;;;;;;7.13;1.02;;;18.20;99.90;;;;;;5018014;28;20072;-66
2023/05/05 12:27:24;;;;;;;;;;;18.10;99.90;;;;;;5020824;28;20392;-65
2023/05/05 12:29:50;;;;;;;3.50;1.27;;;18.20;99.90;;;;;;5015327;28;19921;-66
2023/05/05 12:32:24;;;;;;;0.85;0.85;;;18.20;99.90;;;;;;5027820;28;20095;-66
2023/05/05 12:34:53;;;;;;;0.22;0.20;;;18.10;99.90;;;;;;5017111;28;20053;-66
2023/05/05 12:37:19;;;;;;;0.00;0.00;;;18.10;99.90;;;;;;5017460;28;20395;-66
2023/05/05 12:39:45;;;;;;;0.25;0.20;;;18.00;99.90;;;;;;5013498;28;20693;-66
2023/05/05 12:42:10;;;;;;;0.00;0.00;;;18.00;99.90;;;;;;5016203;28;20084;-66
2023/05/05 12:44:37;;;;;;;0.20;0.20;;;18.00;99.90;;;;;;5014436;28;20516;-66
2023/05/05 12:47:03;;;;;;;0.10;0.10;;;17.90;99.90;;;;;;5010070;28;20565;-66
2023/05/05 12:49:32;;;;;;;1.45;0.80;;;17.80;99.90;;;;;;5010301;28;20041;-66
2023/05/05 12:51:59;;;;;;;0.45;0.40;;;17.90;99.90;;;;;;5008134;28;20057;-66
2023/05/05 12:54:28;;;;;;;0.40;0.40;;;17.80;99.90;;;;;;5012022;28;20053;-66